Time;durP1;ratioP1;P1;durP2;ratioP2;P2;SDS_P1;SDS_P2;PMS_P1;PMS_P2;Temp;Humidity;BMP_temperature;BMP_pressure;BME280_temperature;BME280_humidity;BME280_pressure;Samples;Min_cycle;Max_cycle;Signal;HPM_P1;HPM_P2
2021/01/08 00:00:09;;;;;;;15.57;9.02;;;2.00;75.30;;;;;;4959223;28;20506;-74
2021/01/08 00:02:35;;;;;;;12.20;7.55;;;2.00;75.70;;;;;;4976568;28;20034;-75
2021/01/08 00:05:01;;;;;;;12.85;7.55;;;2.00;75.70;;;;;;4959806;28;20023;-75
2021/01/08 00:07:26;;;;;;;12.95;7.03;;;2.10;75.70;;;;;;4976961;28;20516;-75
2021/01/08 00:09:52;;;;;;;13.70;8.13;;;2.10;74.70;;;;;;4976605;28;20121;-75
2021/01/08 00:12:18;;;;;;;11.35;7.30;;;2.00;75.10;;;;;;4976559;28;20051;-75
2021/01/08 00:14:44;;;;;;;12.25;7.28;;;2.00;75.10;;;;;;4976900;28;20034;-75
2021/01/08 00:17:09;;;;;;;11.05;7.30;;;2.00;75.20;;;;;;4959229;28;20029;-75
2021/01/08 00:19:35;;;;;;;11.48;7.22;;;2.00;75.40;;;;;;4976697;28;20027;-75
2021/01/08 00:22:00;;;;;;;13.30;8.05;;;2.00;75.20;;;;;;4976294;28;20031;-74
2021/01/08 00:24:26;;;;;;;11.93;8.20;;;1.90;75.20;;;;;;4976403;28;20035;-75
2021/01/08 00:26:54;;;;;;;11.85;7.70;;;2.10;75.00;;;;;;4976261;28;20372;-75
2021/01/08 00:29:21;;;;;;;9.43;6.50;;;2.10;75.20;;;;;;4976288;28;20381;-75
2021/01/08 00:31:47;;;;;;;9.88;6.65;;;2.10;75.10;;;;;;4976150;28;20034;-75
2021/01/08 00:34:16;;;;;;;13.15;8.20;;;2.20;75.10;;;;;;4976385;28;20035;-75
2021/01/08 00:36:53;;;;;;;11.57;7.07;;;2.10;75.30;;;;;;4958881;28;20178;-74
2021/01/08 00:39:21;;;;;;;11.70;7.47;;;2.10;74.90;;;;;;4976191;28;20101;-76
2021/01/08 00:41:49;;;;;;;11.57;7.20;;;2.10;75.10;;;;;;4976063;28;20038;-76
2021/01/08 00:44:16;;;;;;;12.63;7.28;;;2.10;75.30;;;;;;4958661;28;20075;-74
2021/01/08 00:46:46;;;;;;;11.25;7.35;;;2.00;75.60;;;;;;4976444;28;20050;-74
2021/01/08 00:49:12;;;;;;;10.40;6.80;;;2.00;75.50;;;;;;4976178;28;20031;-74
2021/01/08 00:51:38;;;;;;;13.02;7.72;;;2.00;75.60;;;;;;4975817;28;20045;-73
2021/01/08 00:54:05;;;;;;;13.35;7.32;;;2.00;75.80;;;;;;4976024;28;20031;-73
2021/01/08 00:56:31;;;;;;;11.07;7.40;;;2.00;75.60;;;;;;4975672;28;20081;-73
2021/01/08 00:58:57;;;;;;;14.43;7.85;;;2.00;76.20;;;;;;4975716;28;20026;-74
2021/01/08 01:01:22;;;;;;;14.98;7.25;;;2.00;75.60;;;;;;4975557;28;20050;-74
2021/01/08 01:03:49;;;;;;;12.77;7.93;;;2.00;75.80;;;;;;4975545;28;20058;-74
2021/01/08 01:06:28;;;;;;;10.30;6.75;;;2.00;75.70;;;;;;4976084;28;20058;-74
2021/01/08 01:08:55;;;;;;;12.65;6.97;;;2.00;75.10;;;;;;4975817;28;20019;-75
2021/01/08 01:11:22;;;;;;;12.77;7.13;;;2.00;75.40;;;;;;4974916;28;20027;-74
2021/01/08 01:13:50;;;;;;;11.30;7.35;;;2.10;75.60;;;;;;4957924;28;20122;-75
2021/01/08 01:16:19;;;;;;;12.70;7.03;;;2.00;74.80;;;;;;4975707;28;20085;-75
2021/01/08 01:18:47;;;;;;;14.30;7.88;;;2.10;75.20;;;;;;4975367;28;20438;-74
2021/01/08 01:21:12;;;;;;;11.07;6.88;;;2.10;75.20;;;;;;4957836;28;20039;-75
2021/01/08 01:23:38;;;;;;;10.95;6.30;;;2.10;74.30;;;;;;4975289;28;20094;-75
2021/01/08 01:26:04;;;;;;;10.38;6.70;;;2.10;73.90;;;;;;4957871;28;20081;-75
2021/01/08 01:28:34;;;;;;;11.18;6.68;;;2.10;74.50;;;;;;4975177;28;20027;-75
2021/01/08 01:31:00;;;;;;;12.82;7.80;;;2.10;74.50;;;;;;4958113;28;20069;-74
2021/01/08 01:33:26;;;;;;;10.82;6.30;;;2.20;74.50;;;;;;4975177;28;20026;-75
2021/01/08 01:35:52;;;;;;;10.63;6.47;;;2.10;74.20;;;;;;4975035;28;20019;-75
2021/01/08 01:38:19;;;;;;;9.80;6.72;;;2.20;74.00;;;;;;4975123;28;20101;-75
2021/01/08 01:40:44;;;;;;;10.55;6.75;;;2.20;74.50;;;;;;4975194;28;20097;-75
2021/01/08 01:43:10;;;;;;;12.77;7.75;;;2.10;74.30;;;;;;4975047;28;20541;-75
2021/01/08 01:45:35;;;;;;;13.52;8.15;;;2.10;74.20;;;;;;4975338;28;20110;-75
2021/01/08 01:48:02;;;;;;;13.27;7.88;;;2.10;74.60;;;;;;4975175;28;20029;-75
2021/01/08 01:50:28;;;;;;;11.40;7.35;;;2.10;74.60;;;;;;4958295;28;20023;-74
2021/01/08 01:52:54;;;;;;;14.45;7.90;;;2.00;74.60;;;;;;4975369;28;20042;-75
2021/01/08 01:55:22;;;;;;;10.98;7.13;;;2.00;74.70;;;;;;4974868;28;20026;-75
2021/01/08 01:57:50;;;;;;;13.60;7.72;;;2.10;74.90;;;;;;4975236;28;20037;-75
2021/01/08 02:00:16;;;;;;;10.95;6.88;;;2.10;74.60;;;;;;4974984;28;20110;-75
2021/01/08 02:02:56;;;;;;;10.35;6.82;;;2.10;74.60;;;;;;4974606;28;20027;-75
2021/01/08 02:05:23;;;;;;;13.45;7.22;;;2.20;74.90;;;;;;4957369;28;20492;-74
2021/01/08 02:08:13;;;;;;;13.23;7.75;;;2.10;74.70;;;;;;4974658;28;20102;-75
2021/01/08 02:11:02;;;;;;;10.25;6.63;;;2.10;74.40;;;;;;4966198;28;20082;-75
2021/01/08 02:13:53;;;;;;;12.18;7.60;;;2.10;74.60;;;;;;4974461;28;20044;-75
2021/01/08 02:16:19;;;;;;;9.52;6.07;;;2.10;74.70;;;;;;4974503;28;20117;-75
2021/01/08 02:18:48;;;;;;;11.25;7.38;;;2.10;74.40;;;;;;4974755;28;20042;-75
2021/01/08 02:21:36;;;;;;;12.07;7.20;;;2.10;75.20;;;;;;4974559;28;20049;-75
2021/01/08 02:24:20;;;;;;;11.18;6.95;;;2.10;75.20;;;;;;4974455;28;20027;-75
2021/01/08 02:26:47;;;;;;;12.07;7.25;;;2.00;75.10;;;;;;4974396;28;20031;-75
2021/01/08 02:29:13;;;;;;;11.20;6.45;;;2.00;75.30;;;;;;4974325;28;20023;-75
2021/01/08 02:31:39;;;;;;;11.27;7.35;;;2.10;75.50;;;;;;4941363;28;20042;-75
2021/01/08 02:34:06;;;;;;;12.25;7.32;;;2.10;74.80;;;;;;4974232;28;20131;-75
2021/01/08 02:36:36;;;;;;;11.32;7.47;;;2.10;75.00;;;;;;4974246;28;20026;-75
2021/01/08 02:39:02;;;;;;;11.40;6.90;;;2.00;75.10;;;;;;4974839;28;20015;-75
2021/01/08 02:41:29;;;;;;;11.02;7.15;;;2.10;75.20;;;;;;4956843;28;20035;-74
2021/01/08 02:43:56;;;;;;;11.05;6.55;;;2.00;75.30;;;;;;4956897;28;20027;-74
2021/01/08 02:46:21;;;;;;;13.07;6.68;;;2.10;75.50;;;;;;4974380;28;20027;-74
2021/01/08 02:48:47;;;;;;;11.27;7.13;;;2.00;75.60;;;;;;4974417;28;20381;-74
2021/01/08 02:51:13;;;;;;;13.05;7.47;;;2.00;75.80;;;;;;4957266;28;20448;-74
2021/01/08 02:53:40;;;;;;;11.82;7.38;;;2.00;75.70;;;;;;4956774;28;20121;-74
2021/01/08 02:56:15;;;;;;;10.80;6.68;;;2.00;76.20;;;;;;4974003;28;20023;-74
2021/01/08 02:58:42;;;;;;;11.52;7.10;;;2.10;75.80;;;;;;4956764;28;20031;-74
2021/01/08 03:01:09;;;;;;;14.07;7.18;;;2.10;75.80;;;;;;4974148;28;20121;-75
2021/01/08 03:03:35;;;;;;;11.15;7.38;;;2.00;76.30;;;;;;4974554;28;20089;-74
2021/01/08 03:06:02;;;;;;;11.82;7.38;;;2.00;76.00;;;;;;4957150;28;20369;-75
2021/01/08 03:08:30;;;;;;;11.02;7.22;;;2.00;76.00;;;;;;4974029;28;20023;-75
2021/01/08 03:10:57;;;;;;;10.63;6.40;;;2.00;76.30;;;;;;4973926;28;20038;-75
2021/01/08 03:13:23;;;;;;;10.90;6.60;;;2.00;76.70;;;;;;4973853;28;20042;-75
2021/01/08 03:15:49;;;;;;;11.45;7.13;;;2.00;76.50;;;;;;4957123;28;20019;-75
2021/01/08 03:18:15;;;;;;;11.25;7.28;;;2.10;76.20;;;;;;4973948;28;20019;-74
2021/01/08 03:20:40;;;;;;;11.55;7.30;;;2.20;76.40;;;;;;4974097;28;20042;-74
2021/01/08 03:23:08;;;;;;;11.55;7.22;;;2.10;76.40;;;;;;4973931;28;20049;-74
2021/01/08 03:25:33;;;;;;;12.30;7.82;;;2.20;76.60;;;;;;4973865;28;20042;-74
2021/01/08 03:27:59;;;;;;;10.63;6.72;;;2.20;77.20;;;;;;4974008;28;20470;-74
2021/01/08 03:30:25;;;;;;;10.40;7.38;;;2.20;77.40;;;;;;4973784;28;20031;-74
2021/01/08 03:32:51;;;;;;;11.48;7.30;;;2.20;77.60;;;;;;4956838;28;20023;-75
2021/01/08 03:35:17;;;;;;;12.98;7.95;;;2.20;78.30;;;;;;4975037;28;20039;-74
2021/01/08 03:37:43;;;;;;;11.45;7.57;;;2.20;78.40;;;;;;4977305;28;20030;-74
2021/01/08 03:40:12;;;;;;;11.90;7.50;;;2.10;78.40;;;;;;4977435;28;20033;-75
2021/01/08 03:42:38;;;;;;;13.75;8.00;;;2.20;78.30;;;;;;4959695;28;20035;-74
2021/01/08 03:45:04;;;;;;;12.50;7.70;;;2.10;79.10;;;;;;4977064;28;20030;-74
2021/01/08 03:47:30;;;;;;;12.55;7.65;;;2.20;79.50;;;;;;4976992;28;20046;-74
2021/01/08 03:49:56;;;;;;;12.82;8.63;;;2.10;79.80;;;;;;4977042;28;20026;-74
2021/01/08 03:52:22;;;;;;;12.80;8.43;;;2.10;80.30;;;;;;4977065;28;20026;-74
2021/01/08 03:54:47;;;;;;;12.38;8.18;;;2.10;79.70;;;;;;4977002;28;20045;-74
2021/01/08 03:57:13;;;;;;;11.93;7.93;;;2.10;79.80;;;;;;4977121;28;20023;-75
2021/01/08 03:59:38;;;;;;;14.90;9.27;;;2.10;79.30;;;;;;4977115;28;20117;-74
2021/01/08 04:02:04;;;;;;;14.68;8.68;;;2.10;79.70;;;;;;4959463;28;20366;-74
2021/01/08 04:04:30;;;;;;;12.13;8.07;;;2.10;78.90;;;;;;4976704;28;20031;-74
2021/01/08 04:06:56;;;;;;;10.85;7.47;;;2.10;78.70;;;;;;4977078;28;20121;-74
2021/01/08 04:09:21;;;;;;;12.07;7.75;;;2.10;78.90;;;;;;4976776;28;20023;-74
2021/01/08 04:11:47;;;;;;;11.75;7.72;;;2.10;78.60;;;;;;4976324;28;20051;-73
2021/01/08 04:14:13;;;;;;;12.55;8.32;;;2.10;78.50;;;;;;4976547;28;20035;-74
2021/01/08 04:16:41;;;;;;;11.05;7.20;;;2.10;78.50;;;;;;4976572;28;20508;-74
2021/01/08 04:19:07;;;;;;;9.60;6.80;;;2.20;78.70;;;;;;4976719;28;20034;-74
2021/01/08 04:21:33;;;;;;;122.45;68.88;;;2.20;77.70;;;;;;4976502;28;20486;-75
2021/01/08 04:23:59;;;;;;;18.50;10.35;;;2.30;78.40;;;;;;4976402;28;20037;-74
2021/01/08 04:26:25;;;;;;;11.20;7.13;;;2.30;77.90;;;;;;4976568;28;20122;-74
2021/01/08 04:28:50;;;;;;;10.10;7.13;;;2.20;77.90;;;;;;4959510;28;20023;-75
2021/01/08 04:31:17;;;;;;;12.57;8.25;;;2.20;77.50;;;;;;4959098;28;20078;-74
2021/01/08 04:33:43;;;;;;;11.93;7.63;;;2.10;77.90;;;;;;4976413;28;20058;-74
2021/01/08 04:36:10;;;;;;;12.38;7.78;;;2.10;78.30;;;;;;4976170;28;20027;-74
2021/01/08 04:38:39;;;;;;;17.50;10.95;;;2.10;78.10;;;;;;4976756;28;20050;-74
2021/01/08 04:41:06;;;;;;;707.72;426.52;;;2.00;78.30;;;;;;4975964;28;20043;-74
2021/01/08 04:43:33;;;;;;;19.90;13.70;;;2.10;79.80;;;;;;4976193;28;20081;-74
2021/01/08 04:46:18;;;;;;;11.15;7.28;;;2.00;78.30;;;;;;4976008;28;20031;-74
2021/01/08 04:48:44;;;;;;;11.35;7.22;;;2.00;78.30;;;;;;4976404;28;20027;-74
2021/01/08 04:51:11;;;;;;;11.52;7.15;;;2.10;78.90;;;;;;4976145;28;20034;-74
2021/01/08 04:53:38;;;;;;;13.52;8.50;;;2.10;79.10;;;;;;4976211;28;20039;-74
2021/01/08 04:56:07;;;;;;;12.18;8.35;;;2.10;79.00;;;;;;4958547;28;20033;-74
2021/01/08 04:58:33;;;;;;;11.95;7.65;;;2.10;79.50;;;;;;4958458;28;20081;-74
2021/01/08 05:01:02;;;;;;;11.80;7.35;;;2.10;79.30;;;;;;4975927;28;20429;-74
2021/01/08 05:03:29;;;;;;;11.48;7.47;;;2.20;78.90;;;;;;4958308;28;20172;-75
2021/01/08 05:05:55;;;;;;;12.98;8.63;;;2.10;79.10;;;;;;4975800;28;20157;-75
2021/01/08 05:08:21;;;;;;;12.02;7.40;;;2.10;78.80;;;;;;4975550;28;20038;-75
2021/01/08 05:10:47;;;;;;;12.10;8.52;;;2.10;79.10;;;;;;4975502;28;20101;-75
2021/01/08 05:13:13;;;;;;;11.43;8.40;;;2.00;79.40;;;;;;4975372;28;20058;-75
2021/01/08 05:15:42;;;;;;;12.95;8.20;;;2.00;79.40;;;;;;4975445;28;20035;-75
2021/01/08 05:18:08;;;;;;;14.05;8.77;;;2.10;79.30;;;;;;4975293;28;20031;-74
2021/01/08 05:20:35;;;;;;;15.65;8.63;;;2.10;79.70;;;;;;4975539;28;20023;-73
2021/01/08 05:23:01;;;;;;;13.30;9.02;;;2.00;80.50;;;;;;4975220;28;20492;-73
2021/01/08 05:25:28;;;;;;;11.65;8.10;;;2.00;80.50;;;;;;4975233;28;20035;-73
2021/01/08 05:27:54;;;;;;;11.73;8.30;;;2.00;80.90;;;;;;4975465;28;20038;-74
2021/01/08 05:30:24;;;;;;;12.18;8.57;;;2.10;81.40;;;;;;4975458;28;20050;-73
2021/01/08 05:32:57;;;;;;;14.68;9.30;;;2.00;81.90;;;;;;4975270;28;20058;-74
2021/01/08 05:35:23;;;;;;;12.68;8.63;;;2.00;82.50;;;;;;4975136;28;20019;-74
2021/01/08 05:37:51;;;;;;;13.48;8.98;;;2.10;82.60;;;;;;4975113;28;20074;-74
2021/01/08 05:40:24;;;;;;;13.38;9.93;;;2.10;82.90;;;;;;4974867;28;20528;-75
2021/01/08 05:42:53;;;;;;;14.00;9.25;;;2.00;83.20;;;;;;4975114;28;20469;-75
2021/01/08 05:45:20;;;;;;;15.68;10.07;;;2.00;84.20;;;;;;4974814;28;20445;-75
2021/01/08 05:47:48;;;;;;;13.80;9.85;;;2.00;84.70;;;;;;4957685;28;20031;-75
2021/01/08 05:50:15;;;;;;;15.77;10.55;;;1.90;84.80;;;;;;4974786;28;20023;-75
2021/01/08 05:52:44;;;;;;;14.82;9.88;;;1.90;85.40;;;;;;4975012;28;20023;-75
2021/01/08 05:55:13;;;;;;;13.32;9.75;;;1.90;85.40;;;;;;4974691;28;20545;-75
2021/01/08 05:57:42;;;;;;;12.90;8.75;;;1.90;85.60;;;;;;4957054;28;20027;-75
2021/01/08 06:00:09;;;;;;;14.85;9.93;;;1.90;85.90;;;;;;4974563;28;20030;-75
2021/01/08 06:02:35;;;;;;;14.55;10.00;;;1.90;85.90;;;;;;4974513;28;20035;-75
2021/01/08 06:05:04;;;;;;;14.88;10.25;;;1.90;85.90;;;;;;4974623;28;20481;-76
2021/01/08 06:07:35;;;;;;;17.17;11.77;;;1.90;86.60;;;;;;4957782;28;20034;-76
2021/01/08 06:10:04;;;;;;;14.38;10.30;;;2.00;86.50;;;;;;4974711;28;20106;-75
2021/01/08 06:12:38;;;;;;;14.00;9.98;;;2.00;85.70;;;;;;4963239;28;20086;-76
2021/01/08 06:15:07;;;;;;;15.82;10.68;;;2.00;85.90;;;;;;4956750;28;20042;-75
2021/01/08 06:17:33;;;;;;;15.27;11.15;;;2.00;86.10;;;;;;4974414;28;20473;-75
2021/01/08 06:20:03;;;;;;;16.15;10.80;;;2.10;85.90;;;;;;4974274;28;20026;-75
2021/01/08 06:22:36;;;;;;;17.27;11.05;;;2.10;86.20;;;;;;4974266;28;20070;-75
2021/01/08 06:25:03;;;;;;;17.52;11.75;;;2.00;85.60;;;;;;4974163;28;20093;-75
2021/01/08 06:27:33;;;;;;;16.45;10.55;;;2.00;85.90;;;;;;4974247;28;20027;-75
2021/01/08 06:30:01;;;;;;;15.70;10.77;;;2.00;86.10;;;;;;4974152;28;20477;-75
2021/01/08 06:32:29;;;;;;;14.85;10.18;;;1.90;86.30;;;;;;4974392;28;20030;-75
2021/01/08 06:35:08;;;;;;;18.23;10.75;;;1.90;86.10;;;;;;4974134;28;20115;-74
2021/01/08 06:37:42;;;;;;;17.35;11.25;;;2.00;85.90;;;;;;4972821;28;20031;-74
2021/01/08 06:40:10;;;;;;;17.42;11.70;;;1.90;86.20;;;;;;4974070;28;20090;-75
2021/01/08 06:42:51;;;;;;;17.75;12.02;;;1.90;86.50;;;;;;4973841;28;20035;-75
2021/01/08 06:45:17;;;;;;;16.80;11.13;;;1.90;86.70;;;;;;4974046;28;20085;-75
2021/01/08 06:47:49;;;;;;;16.88;11.25;;;1.80;87.00;;;;;;4973820;28;20035;-76
2021/01/08 06:50:19;;;;;;;16.90;11.15;;;1.80;87.00;;;;;;4974118;28;20026;-75
2021/01/08 06:52:49;;;;;;;19.65;10.70;;;1.80;86.90;;;;;;4974189;28;20058;-75
2021/01/08 06:55:19;;;;;;;15.10;11.10;;;1.80;86.60;;;;;;4973853;28;20023;-75
2021/01/08 06:57:55;;;;;;;15.10;10.93;;;1.80;86.40;;;;;;4973921;28;20045;-75
2021/01/08 07:00:26;;;;;;;15.45;10.90;;;1.90;86.40;;;;;;4974181;28;20029;-75
2021/01/08 07:02:56;;;;;;;15.85;11.15;;;2.00;86.30;;;;;;4974185;28;20046;-75
2021/01/08 07:05:21;;;;;;;16.65;10.85;;;2.00;86.40;;;;;;4974245;28;20023;-75
2021/01/08 07:07:49;;;;;;;15.35;11.68;;;2.00;86.60;;;;;;4974146;28;20027;-75
2021/01/08 07:10:16;;;;;;;18.67;11.95;;;2.00;86.70;;;;;;4957557;28;20018;-75
2021/01/08 07:12:43;;;;;;;18.65;12.82;;;2.00;86.60;;;;;;4956959;29;20058;-75
2021/01/08 07:15:11;;;;;;;15.35;10.80;;;2.10;86.90;;;;;;4958218;28;20035;-75
2021/01/08 07:17:38;;;;;;;17.55;11.50;;;2.10;86.00;;;;;;4958195;28;20038;-75
2021/01/08 07:20:05;;;;;;;15.48;10.77;;;2.10;85.20;;;;;;4959003;28;20066;-75
2021/01/08 07:22:36;;;;;;;15.27;10.90;;;2.20;85.70;;;;;;4956941;29;20035;-75
2021/01/08 07:25:05;;;;;;;14.80;10.40;;;2.20;85.70;;;;;;4958222;28;20019;-75
2021/01/08 07:27:32;;;;;;;14.75;9.93;;;2.30;85.40;;;;;;4958177;28;20035;-75
2021/01/08 07:30:00;;;;;;;14.77;10.38;;;2.30;84.60;;;;;;4957064;29;20023;-74
2021/01/08 07:32:45;;;;;;;16.67;11.13;;;2.20;84.40;;;;;;4956593;29;20407;-75
2021/01/08 07:35:26;;;;;;;15.50;11.05;;;2.30;85.30;;;;;;4957972;28;20029;-75
2021/01/08 07:37:55;;;;;;;16.92;11.23;;;2.30;84.90;;;;;;4958062;28;20074;-76
2021/01/08 07:40:21;;;;;;;15.50;10.55;;;2.40;85.40;;;;;;4957873;28;20482;-76
2021/01/08 07:42:58;;;;;;;17.33;10.85;;;2.40;85.00;;;;;;4957434;28;20505;-76
2021/01/08 07:45:43;;;;;;;18.83;11.63;;;2.40;85.00;;;;;;4956012;29;20134;-77
2021/01/08 07:48:30;;;;;;;15.63;11.10;;;2.40;84.90;;;;;;4957676;29;20035;-75
2021/01/08 07:51:07;;;;;;;16.92;10.93;;;2.40;84.70;;;;;;4957401;28;20039;-76
2021/01/08 07:53:48;;;;;;;15.15;10.50;;;2.40;84.30;;;;;;4957670;28;20054;-76
2021/01/08 07:56:18;;;;;;;17.08;10.82;;;2.50;84.10;;;;;;4957899;28;20430;-74
2021/01/08 07:58:45;;;;;;;15.32;9.63;;;2.40;84.00;;;;;;4958059;28;20118;-75
2021/01/08 08:01:12;;;;;;;14.30;10.30;;;2.40;84.20;;;;;;4958040;28;20039;-76
2021/01/08 08:03:39;;;;;;;14.18;9.88;;;2.50;84.40;;;;;;4957584;28;20054;-75
2021/01/08 08:06:06;;;;;;;14.63;9.32;;;2.50;84.20;;;;;;4957317;28;20034;-77
2021/01/08 08:08:37;;;;;;;13.77;10.20;;;2.50;83.80;;;;;;4957602;28;20110;-77
2021/01/08 08:11:13;;;;;;;13.32;9.65;;;2.50;84.20;;;;;;4957094;28;20477;-74
2021/01/08 08:13:38;;;;;;;15.82;10.77;;;2.40;83.70;;;;;;4975631;28;20569;-74
2021/01/08 08:16:05;;;;;;;14.13;9.57;;;2.40;83.90;;;;;;4959956;28;20031;-75
2021/01/08 08:18:31;;;;;;;14.23;10.02;;;2.30;83.70;;;;;;4959063;28;20026;-76
2021/01/08 08:21:09;;;;;;;15.00;10.88;;;2.40;83.80;;;;;;4976168;28;20393;-78
2021/01/08 08:23:35;;;;;;;13.23;9.65;;;2.50;83.60;;;;;;4976448;28;20400;-74
2021/01/08 08:26:01;;;;;;;14.63;9.98;;;2.60;83.20;;;;;;4976340;28;20027;-72
2021/01/08 08:28:27;;;;;;;13.90;9.07;;;2.70;82.60;;;;;;4976533;28;20027;-70
2021/01/08 08:30:53;;;;;;;14.68;9.10;;;2.70;82.60;;;;;;4976001;28;20074;-72
2021/01/08 08:33:21;;;;;;;13.00;9.75;;;2.80;82.80;;;;;;4958596;28;20101;-70
2021/01/08 08:35:48;;;;;;;14.32;9.02;;;2.90;82.30;;;;;;4976024;28;20049;-68
2021/01/08 08:38:13;;;;;;;12.98;9.23;;;2.80;81.90;;;;;;4975530;28;20029;-69
2021/01/08 08:40:39;;;;;;;13.55;9.98;;;2.80;82.40;;;;;;4975642;28;20030;-70
2021/01/08 08:43:05;;;;;;;14.27;10.13;;;2.80;82.50;;;;;;4975792;28;20023;-69
2021/01/08 08:45:32;;;;;;;13.88;9.98;;;2.80;82.90;;;;;;4975395;28;20504;-68
2021/01/08 08:48:02;;;;;;;15.43;9.43;;;2.80;82.50;;;;;;4958077;28;20041;-69
2021/01/08 08:50:27;;;;;;;13.30;9.27;;;2.90;82.80;;;;;;4975379;28;20102;-69
2021/01/08 08:52:53;;;;;;;16.35;10.50;;;3.00;82.30;;;;;;4975546;28;20098;-68
2021/01/08 08:55:32;;;;;;;15.40;10.60;;;2.90;82.70;;;;;;4957876;28;20401;-69
2021/01/08 08:58:04;;;;;;;13.60;9.98;;;3.00;82.70;;;;;;4975421;28;20066;-69
2021/01/08 09:00:31;;;;;;;30.27;20.35;;;3.10;82.80;;;;;;4957883;28;20085;-71
2021/01/08 09:02:57;;;;;;;15.65;9.80;;;3.10;83.50;;;;;;4957493;28;20042;-76
2021/01/08 09:05:33;;;;;;;13.48;9.40;;;3.20;82.30;;;;;;4957630;28;20051;-76
2021/01/08 09:08:13;;;;;;;14.60;9.43;;;3.20;82.90;;;;;;4975685;28;20069;-75
2021/01/08 09:11:02;;;;;;;14.07;10.23;;;3.20;82.80;;;;;;4975455;28;20031;-74
2021/01/08 09:13:57;;;;;;;12.27;9.15;;;3.10;83.10;;;;;;4974920;28;20047;-71
2021/01/08 09:16:34;;;;;;;11.52;8.25;;;3.10;84.20;;;;;;4953705;28;20042;-71
2021/01/08 09:19:20;;;;;;;13.80;9.70;;;3.10;84.40;;;;;;4975113;28;20027;-69
2021/01/08 09:21:51;;;;;;;12.95;9.50;;;3.20;85.10;;;;;;4975109;28;20520;-68
2021/01/08 09:24:36;;;;;;;13.95;9.85;;;3.10;85.00;;;;;;4975160;28;20034;-69
2021/01/08 09:27:06;;;;;;;12.20;8.98;;;3.10;85.30;;;;;;4957623;28;20046;-67
2021/01/08 09:29:36;;;;;;;12.50;9.32;;;3.00;85.20;;;;;;4957435;28;20027;-68
2021/01/08 09:32:04;;;;;;;16.15;10.05;;;3.00;85.20;;;;;;4975029;28;20023;-68
2021/01/08 09:34:30;;;;;;;13.95;9.13;;;3.00;85.30;;;;;;4956738;28;20027;-67
2021/01/08 09:36:57;;;;;;;14.55;10.02;;;3.00;85.10;;;;;;4956999;28;20034;-67
2021/01/08 09:39:27;;;;;;;13.57;9.80;;;3.10;85.20;;;;;;4974869;28;20029;-67
2021/01/08 09:42:00;;;;;;;13.05;9.75;;;3.20;85.80;;;;;;4974542;28;20035;-68
2021/01/08 09:44:34;;;;;;;12.00;8.95;;;3.20;85.40;;;;;;4957272;28;20389;-71
2021/01/08 09:47:05;;;;;;;15.02;10.35;;;3.20;85.30;;;;;;4974601;28;20493;-70
2021/01/08 09:49:48;;;;;;;12.57;9.32;;;3.30;85.60;;;;;;4974567;28;20122;-71
2021/01/08 09:52:14;;;;;;;13.18;9.98;;;3.30;84.70;;;;;;4974738;28;20035;-79
2021/01/08 09:54:40;;;;;;;11.30;8.88;;;3.40;85.30;;;;;;4974400;28;20058;-75
2021/01/08 09:57:05;;;;;;;11.85;8.98;;;3.50;84.90;;;;;;4974656;28;20077;-77
2021/01/08 09:59:31;;;;;;;12.57;9.38;;;3.50;85.10;;;;;;4974176;28;20150;-78
2021/01/08 10:01:59;;;;;;;13.30;9.02;;;3.50;84.90;;;;;;4974242;28;20083;-77
2021/01/08 10:04:30;;;;;;;11.75;8.88;;;3.50;84.80;;;;;;4974752;28;20022;-74
2021/01/08 10:07:06;;;;;;;12.73;9.77;;;3.40;84.40;;;;;;4974586;28;20033;-80
2021/01/08 10:09:52;;;;;;;15.27;9.43;;;3.30;85.50;;;;;;4974354;28;20026;-82
2021/01/08 10:12:24;;;;;;;12.07;8.45;;;3.40;85.70;;;;;;4957238;28;20101;-75
2021/01/08 10:14:58;;;;;;;13.43;8.60;;;3.50;85.20;;;;;;4974510;28;20034;-78
2021/01/08 10:17:24;;;;;;;12.77;9.38;;;3.50;85.20;;;;;;4974450;28;20540;-79
2021/01/08 10:19:51;;;;;;;13.60;9.20;;;3.50;85.30;;;;;;4974142;28;20023;-76
2021/01/08 10:22:20;;;;;;;12.98;9.10;;;3.40;85.60;;;;;;4973946;28;20038;-77
2021/01/08 10:24:46;;;;;;;13.35;10.13;;;3.50;85.50;;;;;;4974027;28;20037;-81
2021/01/08 10:27:12;;;;;;;13.68;9.63;;;3.60;85.50;;;;;;4974008;28;20039;-82
2021/01/08 10:29:39;;;;;;;14.02;9.68;;;3.60;85.90;;;;;;4974165;28;20061;-85
2021/01/08 10:32:12;;;;;;;12.07;9.15;;;3.60;84.90;;;;;;4956542;28;20034;-83
2021/01/08 10:34:43;;;;;;;17.63;11.05;;;3.70;84.50;;;;;;4974227;28;20034;-87
2021/01/08 10:37:19;;;;;;;12.00;8.90;;;3.70;84.50;;;;;;4974002;28;20029;-79
2021/01/08 10:39:48;;;;;;;15.05;11.38;;;3.60;84.80;;;;;;4956822;28;20058;-78
2021/01/08 10:42:17;;;;;;;13.07;9.43;;;3.60;84.40;;;;;;4973857;28;20042;-80
2021/01/08 10:44:43;;;;;;;10.93;9.02;;;3.60;84.60;;;;;;4974071;28;20158;-79
2021/01/08 10:47:09;;;;;;;16.83;10.88;;;3.60;84.50;;;;;;4978156;28;20104;-75
2021/01/08 10:49:35;;;;;;;15.13;10.45;;;3.60;84.40;;;;;;4960574;28;20118;-76
2021/01/08 10:52:06;;;;;;;20.92;12.25;;;3.60;83.40;;;;;;4977978;28;20121;-76
2021/01/08 10:54:33;;;;;;;16.17;11.57;;;3.60;84.00;;;;;;4978435;28;20063;-76
2021/01/08 10:56:59;;;;;;;14.18;10.25;;;3.60;84.10;;;;;;4979675;28;20038;-76
2021/01/08 10:59:25;;;;;;;10.20;8.35;;;3.70;84.60;;;;;;4961620;28;20019;-76
2021/01/08 11:01:51;;;;;;;9.68;7.70;;;3.60;84.10;;;;;;4977856;28;20046;-76
2021/01/08 11:04:17;;;;;;;10.40;8.15;;;3.60;83.50;;;;;;4960413;28;20110;-77
2021/01/08 11:06:42;;;;;;;11.52;8.43;;;3.60;83.20;;;;;;4977976;28;20106;-76
2021/01/08 11:09:08;;;;;;;13.02;9.50;;;3.60;83.50;;;;;;4977726;28;20054;-76
2021/01/08 11:11:34;;;;;;;12.88;8.48;;;3.70;83.60;;;;;;4977440;28;20078;-74
2021/01/08 11:14:00;;;;;;;10.93;8.20;;;3.60;82.60;;;;;;4976285;28;20027;-75
2021/01/08 11:16:30;;;;;;;13.27;8.45;;;3.60;82.90;;;;;;4977339;28;20489;-75
2021/01/08 11:18:56;;;;;;;12.52;9.10;;;3.70;83.40;;;;;;4959974;28;20031;-76
2021/01/08 11:21:22;;;;;;;12.80;8.95;;;3.80;82.90;;;;;;4977674;28;20054;-76
2021/01/08 11:23:49;;;;;;;15.80;9.95;;;3.80;82.40;;;;;;4977701;28;20019;-75
2021/01/08 11:26:30;;;;;;;10.98;8.10;;;3.80;82.40;;;;;;4977449;28;20121;-78
2021/01/08 11:28:57;;;;;;;8.05;6.50;;;3.80;82.30;;;;;;4960381;28;20469;-76
2021/01/08 11:31:36;;;;;;;9.73;7.30;;;3.80;82.10;;;;;;4977167;28;20031;-76
2021/01/08 11:34:06;;;;;;;9.32;7.30;;;3.90;82.30;;;;;;4977051;28;20033;-77
2021/01/08 11:36:32;;;;;;;13.15;7.35;;;3.90;81.90;;;;;;4977057;28;20105;-76
2021/01/08 11:38:58;;;;;;;8.63;6.80;;;4.00;80.90;;;;;;4959511;28;20074;-76
2021/01/08 11:41:24;;;;;;;9.43;7.35;;;3.90;80.50;;;;;;4976952;28;20035;-76
2021/01/08 11:43:50;;;;;;;9.68;7.20;;;3.80;80.90;;;;;;4976912;28;20026;-75
2021/01/08 11:46:20;;;;;;;10.43;7.47;;;3.80;80.90;;;;;;4977165;28;20019;-75
2021/01/08 11:48:47;;;;;;;9.32;7.38;;;3.90;80.70;;;;;;4959428;28;20035;-76
2021/01/08 11:51:16;;;;;;;10.00;6.13;;;3.90;80.50;;;;;;4977110;28;20030;-75
2021/01/08 11:53:46;;;;;;;6.80;5.60;;;4.00;79.70;;;;;;4976808;28;20027;-76
2021/01/08 11:56:12;;;;;;;7.95;6.20;;;3.90;79.40;;;;;;4976207;28;20362;-75
2021/01/08 11:58:39;;;;;;;7.25;6.40;;;4.00;79.30;;;;;;4976397;28;20062;-80
2021/01/08 12:01:05;;;;;;;9.80;6.57;;;4.20;78.90;;;;;;4959060;28;20038;-74
2021/01/08 12:03:32;;;;;;;13.00;8.02;;;4.20;78.80;;;;;;4976506;28;20031;-79
2021/01/08 12:05:58;;;;;;;13.38;8.98;;;4.30;78.40;;;;;;4976294;28;20026;-77
2021/01/08 12:08:24;;;;;;;14.25;8.98;;;4.40;78.70;;;;;;4976542;28;20037;-75
2021/01/08 12:10:50;;;;;;;8.23;6.28;;;4.40;77.80;;;;;;4976219;28;20106;-83
2021/01/08 12:13:16;;;;;;;7.53;5.93;;;4.50;77.80;;;;;;4976244;28;20046;-81
2021/01/08 12:15:42;;;;;;;9.80;7.10;;;4.50;77.40;;;;;;4958899;28;20081;-88
2021/01/08 12:18:09;;;;;;;22.58;12.57;;;4.50;77.60;;;;;;4959035;28;20478;-79
2021/01/08 12:20:36;;;;;;;23.88;13.13;;;4.60;76.50;;;;;;4976254;28;20030;-78
2021/01/08 12:23:05;;;;;;;17.10;9.68;;;4.60;77.50;;;;;;4976422;28;20062;-79
2021/01/08 12:25:40;;;;;;;11.85;8.50;;;4.60;76.70;;;;;;4958510;28;20114;-79
2021/01/08 12:28:08;;;;;;;10.77;7.85;;;4.50;77.20;;;;;;4976510;28;20478;-81
2021/01/08 12:30:34;;;;;;;15.55;9.43;;;4.50;77.70;;;;;;4976037;28;20034;-76
2021/01/08 12:33:01;;;;;;;8.55;6.15;;;4.50;77.20;;;;;;4976146;28;20081;-77
2021/01/08 12:35:27;;;;;;;9.30;6.90;;;4.50;77.20;;;;;;4976154;28;20042;-80
2021/01/08 12:37:53;;;;;;;7.80;5.80;;;4.50;77.00;;;;;;4976691;28;20022;-76
2021/01/08 12:40:24;;;;;;;8.10;6.45;;;4.50;77.00;;;;;;4976337;28;20166;-81
2021/01/08 12:42:54;;;;;;;11.63;7.80;;;4.60;76.90;;;;;;4957978;28;20031;-80
2021/01/08 12:45:21;;;;;;;10.77;7.40;;;4.50;76.50;;;;;;4975855;28;20026;-81
2021/01/08 12:47:48;;;;;;;16.90;9.90;;;4.40;76.90;;;;;;4975930;28;20027;-82
2021/01/08 12:50:14;;;;;;;10.82;7.47;;;4.50;76.90;;;;;;4958516;28;20027;-78
2021/01/08 12:52:40;;;;;;;17.65;9.73;;;4.40;76.60;;;;;;4958825;28;20053;-81